Time,TemperatureF,DewpointF,PressureIn,WindDirection,WindDirectionDegrees,WindSpeedMPH,WindSpeedGustMPH,Humidity,HourlyPrecipIn,Conditions,Clouds,dailyrainin,SoftwareType,DateUTC
2013-01-31 00:03:00,40.0,37.0,-100.00,NNW,344,5.0,24.0,95,0.00,,,-99.99,,2013-01-31 05:03:00,
2013-01-31 00:11:00,39.0,37.0,-100.00,WNW,286,6.0,24.0,95,0.00,,,-99.99,,2013-01-31 05:11:00,
2013-01-31 00:22:00,39.0,36.0,-100.00,West,265,6.0,24.0,91,0.00,,,-99.99,,2013-01-31 05:22:00,
2013-01-31 00:32:00,39.0,36.0,-100.00,West,265,6.0,24.0,91,0.00,,,-99.99,,2013-01-31 05:32:00,
2013-01-31 00:42:00,38.0,36.0,-100.00,WSW,245,11.0,24.0,93,0.00,,,-99.99,,2013-01-31 05:42:00,
2013-01-31 00:52:00,38.0,36.0,-100.00,WSW,245,11.0,24.0,93,0.00,,,-99.99,,2013-01-31 05:52:00,
2013-01-31 01:01:00,38.0,36.0,-100.00,WSW,245,11.0,24.0,93,0.00,,,-99.99,,2013-01-31 06:01:00,
2013-01-31 01:11:00,38.0,36.0,-100.00,WSW,245,11.0,24.0,93,0.00,,,-99.99,,2013-01-31 06:11:00,
2013-01-31 09:03:00,25.0,18.0,-100.00,West,265,7.0,17.0,67,0.00,,,-99.99,,2013-01-31 14:03:00,
2013-01-31 09:11:00,25.0,18.0,-100.00,WNW,290,8.0,17.0,71,0.00,,,-99.99,,2013-01-31 14:11:00,
2013-01-31 09:22:00,25.0,19.0,-100.00,WNW,292,4.0,17.0,75,0.00,,,-99.99,,2013-01-31 14:22:00,
2013-01-31 09:32:00,24.0,19.0,-100.00,WSW,251,6.0,17.0,78,0.00,,,-99.99,,2013-01-31 14:32:00,
2013-01-31 09:42:00,24.0,21.0,-100.00,NW,314,5.0,17.0,82,0.00,,,-99.99,,2013-01-31 14:42:00,
2013-01-31 09:52:00,24.0,21.0,-100.00,West,271,6.0,17.0,82,0.00,,,-99.99,,2013-01-31 14:52:00,
2013-01-31 10:03:00,25.0,21.0,-100.00,West,275,6.0,17.0,82,0.00,,,-99.99,,2013-01-31 15:03:00,
2013-01-31 10:12:00,26.0,21.0,-100.00,West,264,4.0,17.0,82,0.00,,,-99.99,,2013-01-31 15:12:00,
2013-01-31 10:22:00,26.0,18.0,-100.00,West,275,7.0,17.0,66,0.00,,,-99.99,,2013-01-31 15:22:00,
2013-01-31 10:32:00,25.0,18.0,-100.00,West,261,8.0,17.0,72,0.00,,,-99.99,,2013-01-31 15:32:00,
2013-01-31 10:42:00,25.0,18.0,-100.00,WNW,302,11.0,17.0,68,0.00,,,-99.99,,2013-01-31 15:42:00,
2013-01-31 10:51:00,26.0,18.0,-100.00,SW,232,9.0,17.0,69,0.00,,,-99.99,,2013-01-31 15:51:00,
2013-01-31 11:03:00,26.0,18.0,-100.00,WSW,254,7.0,17.0,68,0.00,,,-99.99,,2013-01-31 16:03:00,
2013-01-31 11:13:00,26.0,16.0,-100.00,WNW,290,12.0,17.0,64,0.00,,,-99.99,,2013-01-31 16:13:00,
2013-01-31 11:22:00,26.0,16.0,-100.00,West,278,12.0,17.0,60,0.00,,,-99.99,,2013-01-31 16:22:00,
2013-01-31 11:33:00,26.0,16.0,-100.00,South,177,9.0,17.0,60,0.00,,,-99.99,,2013-01-31 16:33:00,
2013-01-31 11:42:00,26.0,12.0,-100.00,West,271,7.0,17.0,55,0.00,,,-99.99,,2013-01-31 16:42:00,
2013-01-31 11:52:00,26.0,12.0,-100.00,WNW,289,10.0,17.0,55,0.00,,,-99.99,,2013-01-31 16:52:00,
2013-01-31 12:03:00,25.0,14.0,-100.00,NNW,328,12.0,17.0,58,0.00,,,-99.99,,2013-01-31 17:03:00,
2013-01-31 12:13:00,26.0,12.0,-100.00,SW,235,12.0,17.0,55,0.00,,,-99.99,,2013-01-31 17:13:00,
2013-01-31 12:23:00,25.0,12.0,-100.00,WSW,244,10.0,17.0,54,0.00,,,-99.99,,2013-01-31 17:23:00,
2013-01-31 12:32:00,25.0,12.0,-100.00,West,278,11.0,17.0,56,0.00,,,-99.99,,2013-01-31 17:32:00,
2013-01-31 12:44:00,25.0,14.0,-100.00,WNW,297,8.0,17.0,59,0.00,,,-99.99,,2013-01-31 17:44:00,
2013-01-31 12:53:00,26.0,14.0,-100.00,SW,232,10.0,17.0,59,0.00,,,-99.99,,2013-01-31 17:53:00,
2013-01-31 13:03:00,24.0,16.0,-100.00,WNW,292,9.0,17.0,64,0.00,,,-99.99,,2013-01-31 18:03:00,
2013-01-31 13:13:00,25.0,16.0,-100.00,West,276,7.0,17.0,66,0.00,,,-99.99,,2013-01-31 18:13:00,
2013-01-31 13:22:00,24.0,14.0,-100.00,NW,307,7.0,17.0,63,0.00,,,-99.99,,2013-01-31 18:22:00,
2013-01-31 13:32:00,25.0,14.0,-100.00,WNW,288,11.0,17.0,59,0.00,,,-99.99,,2013-01-31 18:32:00,
2013-01-31 13:43:00,25.0,14.0,-100.00,WNW,296,14.0,17.0,60,0.00,,,-99.99,,2013-01-31 18:43:00,
2013-01-31 13:52:00,26.0,16.0,-100.00,West,269,9.0,17.0,63,0.00,,,-99.99,,2013-01-31 18:52:00,
2013-01-31 14:03:00,24.0,18.0,-100.00,NW,323,7.0,17.0,77,0.00,,,-99.99,,2013-01-31 19:03:00,
2013-01-31 14:12:00,24.0,18.0,-100.00,WSW,254,6.0,17.0,77,0.00,,,-99.99,,2013-01-31 19:12:00,
2013-01-31 14:22:00,25.0,18.0,-100.00,WNW,296,6.0,17.0,69,0.00,,,-99.99,,2013-01-31 19:22:00,
2013-01-31 14:33:00,24.0,14.0,-100.00,West,262,12.0,17.0,62,0.00,,,-99.99,,2013-01-31 19:33:00,
2013-01-31 14:42:00,25.0,14.0,-100.00,WNW,283,11.0,17.0,59,0.00,,,-99.99,,2013-01-31 19:42:00,
2013-01-31 14:52:00,25.0,14.0,-100.00,WSW,256,9.0,17.0,62,0.00,,,-99.99,,2013-01-31 19:52:00,
2013-01-31 15:02:00,25.0,16.0,-100.00,WNW,285,6.0,17.0,66,0.00,,,-99.99,,2013-01-31 20:02:00,
2013-01-31 15:12:00,25.0,18.0,-100.00,SSW,194,6.0,17.0,67,0.00,,,-99.99,,2013-01-31 20:12:00,
2013-01-31 15:22:00,26.0,18.0,-100.00,WNW,289,5.0,17.0,66,0.00,,,-99.99,,2013-01-31 20:22:00,
2013-01-31 15:32:00,25.0,18.0,-100.00,West,278,6.0,17.0,68,0.00,,,-99.99,,2013-01-31 20:32:00,
2013-01-31 15:42:00,25.0,19.0,-100.00,WNW,286,4.0,17.0,77,0.00,,,-99.99,,2013-01-31 20:42:00,
2013-01-31 15:52:00,25.0,19.0,-100.00,NW,320,4.0,17.0,78,0.00,,,-99.99,,2013-01-31 20:52:00,
2013-01-31 16:02:00,25.0,19.0,-100.00,West,268,2.0,17.0,76,0.00,,,-99.99,,2013-01-31 21:02:00,
2013-01-31 16:12:00,25.0,21.0,-100.00,West,280,2.0,17.0,78,0.00,,,-99.99,,2013-01-31 21:12:00,
2013-01-31 16:22:00,25.0,21.0,-100.00,WSW,256,4.0,17.0,81,0.00,,,-99.99,,2013-01-31 21:22:00,
2013-01-31 16:32:00,26.0,21.0,-100.00,WNW,295,3.0,17.0,80,0.00,,,-99.99,,2013-01-31 21:32:00,
2013-01-31 16:42:00,26.0,21.0,-100.00,WNW,293,3.0,17.0,80,0.00,,,-99.99,,2013-01-31 21:42:00,
2013-01-31 16:52:00,26.0,21.0,-100.00,NW,321,4.0,17.0,78,0.00,,,-99.99,,2013-01-31 21:52:00,
2013-01-31 17:03:00,26.0,21.0,-100.00,West,275,3.0,17.0,77,0.00,,,-99.99,,2013-01-31 22:03:00,
2013-01-31 17:11:00,26.0,21.0,-100.00,West,272,2.0,17.0,80,0.00,,,-99.99,,2013-01-31 22:11:00,
2013-01-31 17:22:00,26.0,23.0,-100.00,NNW,334,2.0,17.0,86,0.00,,,-99.99,,2013-01-31 22:22:00,
2013-01-31 17:33:00,26.0,23.0,-100.00,SSE,151,4.0,17.0,85,0.00,,,-99.99,,2013-01-31 22:33:00,
2013-01-31 17:42:00,26.0,21.0,-100.00,West,269,4.0,17.0,80,0.00,,,-99.99,,2013-01-31 22:42:00,
2013-01-31 17:51:00,26.0,21.0,-100.00,NNW,341,8.0,17.0,75,0.00,,,-99.99,,2013-01-31 22:51:00,
2013-01-31 18:03:00,26.0,19.0,-100.00,West,275,6.0,17.0,75,0.00,,,-99.99,,2013-01-31 23:03:00,
2013-01-31 18:12:00,26.0,19.0,-100.00,SSE,160,6.0,17.0,76,0.00,,,-99.99,,2013-01-31 23:12:00,
2013-01-31 18:22:00,26.0,21.0,-100.00,NW,323,3.0,17.0,80,0.00,,,-99.99,,2013-01-31 23:22:00,
2013-01-31 18:32:00,25.0,21.0,-100.00,SSW,197,5.0,17.0,82,0.00,,,-99.99,,2013-01-31 23:32:00,
2013-01-31 18:42:00,25.0,23.0,-100.00,West,279,5.0,17.0,88,0.00,,,-99.99,,2013-01-31 23:42:00,
2013-01-31 18:52:00,24.0,21.0,-100.00,SW,230,5.0,17.0,86,0.00,,,-99.99,,2013-01-31 23:52:00,
2013-01-31 19:02:00,25.0,21.0,-100.00,WNW,282,6.0,17.0,84,0.00,,,-99.99,,2013-02-01 00:02:00,
2013-01-31 19:11:00,25.0,21.0,-100.00,NW,306,4.0,17.0,84,0.00,,,-99.99,,2013-02-01 00:11:00,
2013-01-31 19:22:00,25.0,23.0,-100.00,South,182,4.0,17.0,86,0.00,,,-99.99,,2013-02-01 00:22:00,
2013-01-31 19:32:00,24.0,23.0,-100.00,WNW,283,2.0,17.0,88,0.00,,,-99.99,,2013-02-01 00:32:00,
2013-01-31 19:42:00,24.0,23.0,-100.00,WSW,255,2.0,17.0,89,0.00,,,-99.99,,2013-02-01 00:42:00,
2013-01-31 19:51:00,25.0,23.0,-100.00,West,272,2.0,17.0,88,0.00,,,-99.99,,2013-02-01 00:51:00,
2013-01-31 20:01:00,24.0,23.0,-100.00,West,280,3.0,17.0,89,0.00,,,-99.99,,2013-02-01 01:01:00,
2013-01-31 20:11:00,24.0,23.0,-100.00,West,276,2.0,17.0,88,0.00,,,-99.99,,2013-02-01 01:11:00,
2013-01-31 20:21:00,24.0,23.0,-100.00,SSE,152,3.0,17.0,88,0.00,,,-99.99,,2013-02-01 01:21:00,
2013-01-31 20:32:00,25.0,23.0,-100.00,WNW,285,4.0,17.0,88,0.00,,,-99.99,,2013-02-01 01:32:00,
2013-01-31 20:42:00,25.0,23.0,-100.00,WNW,300,3.0,17.0,86,0.00,,,-99.99,,2013-02-01 01:42:00,
2013-01-31 20:52:00,25.0,21.0,-100.00,West,266,2.0,17.0,85,0.00,,,-99.99,,2013-02-01 01:52:00,
2013-01-31 21:02:00,25.0,21.0,-100.00,West,261,3.0,17.0,85,0.00,,,-99.99,,2013-02-01 02:02:00,
2013-01-31 21:11:00,25.0,21.0,-100.00,West,278,2.0,17.0,84,0.00,,,-99.99,,2013-02-01 02:11:00,
2013-01-31 21:21:00,25.0,23.0,-100.00,WNW,296,4.0,17.0,86,0.00,,,-99.99,,2013-02-01 02:21:00,
2013-01-31 21:32:00,24.0,21.0,-100.00,WNW,285,4.0,17.0,84,0.00,,,-99.99,,2013-02-01 02:32:00,
2013-01-31 21:42:00,25.0,21.0,-100.00,West,259,4.0,17.0,85,0.00,,,-99.99,,2013-02-01 02:42:00,
2013-01-31 21:52:00,24.0,21.0,-100.00,WNW,286,4.0,17.0,86,0.00,,,-99.99,,2013-02-01 02:52:00,
2013-01-31 22:02:00,23.0,21.0,-100.00,North,357,6.0,17.0,88,0.00,,,-99.99,,2013-02-01 03:02:00,
2013-01-31 22:12:00,26.0,25.0,-100.00,WSW,256,5.0,17.0,91,0.00,,,-99.99,,2013-02-01 03:12:00,
2013-01-31 22:21:00,25.0,25.0,-100.00,WNW,286,3.0,17.0,91,0.00,,,-99.99,,2013-02-01 03:21:00,
2013-01-31 22:33:00,24.0,23.0,-100.00,NW,317,4.0,17.0,90,0.00,,,-99.99,,2013-02-01 03:33:00,
2013-01-31 22:42:00,24.0,21.0,-100.00,NW,320,2.0,17.0,90,0.00,,,-99.99,,2013-02-01 03:42:00,
2013-01-31 22:51:00,24.0,21.0,-100.00,South,182,2.0,17.0,90,0.00,,,-99.99,,2013-02-01 03:51:00,
2013-01-31 23:02:00,25.0,23.0,-100.00,SW,224,2.0,17.0,91,0.00,,,-99.99,,2013-02-01 04:02:00,
2013-01-31 23:11:00,23.0,21.0,-100.00,West,269,2.0,17.0,88,0.00,,,-99.99,,2013-02-01 04:11:00,
2013-01-31 23:21:00,24.0,21.0,-100.00,West,279,2.0,17.0,88,0.00,,,-99.99,,2013-02-01 04:21:00,
2013-01-31 23:32:00,22.0,19.0,-100.00,SW,225,1.0,17.0,84,0.00,,,-99.99,,2013-02-01 04:32:00,
2013-01-31 23:42:00,22.0,18.0,-100.00,NW,313,3.0,17.0,81,0.00,,,-99.99,,2013-02-01 04:42:00,
2013-01-31 23:51:00,24.0,19.0,-100.00,NW,304,2.0,17.0,81,0.00,,,-99.99,,2013-02-01 04:51:00,